sensor_id;sensor_type;location;lat;lon;timestamp;P1;durP1;ratioP1;P2;durP2;ratioP2
1691;SDS011;843;52.054;8.552;2022-08-21T00:02:13;8.60;;;5.43;;
1691;SDS011;843;52.054;8.552;2022-08-21T00:04:40;6.43;;;5.60;;
1691;SDS011;843;52.054;8.552;2022-08-21T00:07:07;12.37;;;5.40;;
1691;SDS011;843;52.054;8.552;2022-08-21T00:09:33;7.30;;;5.40;;
1691;SDS011;843;52.054;8.552;2022-08-21T00:12:03;7.73;;;4.97;;
1691;SDS011;843;52.054;8.552;2022-08-21T00:14:30;5.80;;;4.87;;
1691;SDS011;843;52.054;8.552;2022-08-21T00:16:58;8.97;;;5.20;;
1691;SDS011;843;52.054;8.552;2022-08-21T00:19:25;7.77;;;6.57;;
1691;SDS011;843;52.054;8.552;2022-08-21T00:21:52;6.80;;;5.80;;
1691;SDS011;843;52.054;8.552;2022-08-21T00:24:19;7.43;;;5.80;;
1691;SDS011;843;52.054;8.552;2022-08-21T00:26:47;8.00;;;5.47;;
1691;SDS011;843;52.054;8.552;2022-08-21T00:29:15;9.40;;;5.20;;
1691;SDS011;843;52.054;8.552;2022-08-21T00:31:42;9.17;;;6.80;;
1691;SDS011;843;52.054;8.552;2022-08-21T00:34:09;8.60;;;5.70;;
1691;SDS011;843;52.054;8.552;2022-08-21T00:36:38;5.53;;;5.00;;
1691;SDS011;843;52.054;8.552;2022-08-21T00:39:06;10.80;;;5.57;;
1691;SDS011;843;52.054;8.552;2022-08-21T00:41:33;8.27;;;5.60;;
1691;SDS011;843;52.054;8.552;2022-08-21T00:44:01;8.30;;;5.87;;
1691;SDS011;843;52.054;8.552;2022-08-21T00:46:30;7.27;;;5.90;;
1691;SDS011;843;52.054;8.552;2022-08-21T00:48:57;11.47;;;5.37;;
1691;SDS011;843;52.054;8.552;2022-08-21T00:51:24;9.43;;;6.90;;
1691;SDS011;843;52.054;8.552;2022-08-21T00:53:54;6.10;;;4.90;;
1691;SDS011;843;52.054;8.552;2022-08-21T00:56:24;8.20;;;5.03;;
1691;SDS011;843;52.054;8.552;2022-08-21T00:58:51;8.43;;;5.60;;
1691;SDS011;843;52.054;8.552;2022-08-21T01:01:19;7.70;;;5.77;;
1691;SDS011;843;52.054;8.552;2022-08-21T01:03:47;6.47;;;5.23;;
1691;SDS011;843;52.054;8.552;2022-08-21T01:06:14;7.33;;;5.53;;
1691;SDS011;843;52.054;8.552;2022-08-21T01:08:41;9.17;;;5.40;;
1691;SDS011;843;52.054;8.552;2022-08-21T01:11:08;7.37;;;5.23;;
1691;SDS011;843;52.054;8.552;2022-08-21T01:13:36;9.90;;;5.10;;
1691;SDS011;843;52.054;8.552;2022-08-21T01:16:05;9.20;;;5.50;;
1691;SDS011;843;52.054;8.552;2022-08-21T01:18:35;7.33;;;5.53;;
1691;SDS011;843;52.054;8.552;2022-08-21T01:21:11;7.63;;;5.40;;
1691;SDS011;843;52.054;8.552;2022-08-21T01:23:40;9.77;;;5.87;;
1691;SDS011;843;52.054;8.552;2022-08-21T01:26:08;7.70;;;4.97;;
1691;SDS011;843;52.054;8.552;2022-08-21T01:28:37;10.37;;;5.77;;
1691;SDS011;843;52.054;8.552;2022-08-21T01:31:06;7.30;;;5.83;;
1691;SDS011;843;52.054;8.552;2022-08-21T01:33:33;10.60;;;5.20;;
1691;SDS011;843;52.054;8.552;2022-08-21T01:36:00;9.10;;;6.07;;
1691;SDS011;843;52.054;8.552;2022-08-21T01:38:28;9.17;;;5.80;;
1691;SDS011;843;52.054;8.552;2022-08-21T01:40:56;8.10;;;5.90;;
1691;SDS011;843;52.054;8.552;2022-08-21T01:43:22;11.03;;;6.83;;
1691;SDS011;843;52.054;8.552;2022-08-21T01:45:49;8.00;;;7.00;;
1691;SDS011;843;52.054;8.552;2022-08-21T01:48:16;12.37;;;7.13;;
1691;SDS011;843;52.054;8.552;2022-08-21T01:50:42;9.10;;;6.37;;
1691;SDS011;843;52.054;8.552;2022-08-21T01:53:09;9.73;;;5.97;;
1691;SDS011;843;52.054;8.552;2022-08-21T01:55:37;10.87;;;6.50;;
1691;SDS011;843;52.054;8.552;2022-08-21T01:58:04;10.10;;;7.30;;
1691;SDS011;843;52.054;8.552;2022-08-21T02:00:30;10.33;;;6.77;;
1691;SDS011;843;52.054;8.552;2022-08-21T02:02:57;9.73;;;7.13;;
1691;SDS011;843;52.054;8.552;2022-08-21T02:05:24;9.17;;;6.80;;
1691;SDS011;843;52.054;8.552;2022-08-21T02:07:52;8.27;;;7.30;;
1691;SDS011;843;52.054;8.552;2022-08-21T02:10:20;7.87;;;7.17;;
1691;SDS011;843;52.054;8.552;2022-08-21T02:12:49;10.20;;;6.87;;
1691;SDS011;843;52.054;8.552;2022-08-21T02:15:16;9.50;;;7.80;;
1691;SDS011;843;52.054;8.552;2022-08-21T02:17:45;9.30;;;6.60;;
1691;SDS011;843;52.054;8.552;2022-08-21T02:20:15;9.20;;;7.60;;
1691;SDS011;843;52.054;8.552;2022-08-21T02:22:43;9.60;;;8.20;;
1691;SDS011;843;52.054;8.552;2022-08-21T02:25:10;11.80;;;8.07;;
1691;SDS011;843;52.054;8.552;2022-08-21T02:27:37;8.37;;;7.50;;
1691;SDS011;843;52.054;8.552;2022-08-21T02:30:08;10.30;;;7.00;;
1691;SDS011;843;52.054;8.552;2022-08-21T02:32:37;11.83;;;7.70;;
1691;SDS011;843;52.054;8.552;2022-08-21T02:35:04;14.17;;;8.27;;
1691;SDS011;843;52.054;8.552;2022-08-21T02:37:31;8.37;;;7.00;;
1691;SDS011;843;52.054;8.552;2022-08-21T02:39:58;10.30;;;7.17;;
1691;SDS011;843;52.054;8.552;2022-08-21T02:42:26;9.03;;;7.63;;
1691;SDS011;843;52.054;8.552;2022-08-21T02:44:52;10.27;;;6.77;;
1691;SDS011;843;52.054;8.552;2022-08-21T02:47:21;10.23;;;8.43;;
1691;SDS011;843;52.054;8.552;2022-08-21T02:49:47;10.60;;;8.23;;
1691;SDS011;843;52.054;8.552;2022-08-21T02:52:14;11.27;;;7.50;;
1691;SDS011;843;52.054;8.552;2022-08-21T02:54:40;10.47;;;7.97;;
1691;SDS011;843;52.054;8.552;2022-08-21T02:57:07;11.00;;;7.90;;
1691;SDS011;843;52.054;8.552;2022-08-21T02:59:34;13.23;;;9.30;;
1691;SDS011;843;52.054;8.552;2022-08-21T03:02:01;13.93;;;8.03;;
1691;SDS011;843;52.054;8.552;2022-08-21T03:04:29;9.17;;;7.27;;
1691;SDS011;843;52.054;8.552;2022-08-21T03:06:57;12.97;;;8.40;;
1691;SDS011;843;52.054;8.552;2022-08-21T03:09:23;9.73;;;8.13;;
1691;SDS011;843;52.054;8.552;2022-08-21T03:11:50;12.70;;;8.20;;
1691;SDS011;843;52.054;8.552;2022-08-21T03:14:18;9.93;;;8.83;;
1691;SDS011;843;52.054;8.552;2022-08-21T03:16:45;10.03;;;7.50;;
1691;SDS011;843;52.054;8.552;2022-08-21T03:19:12;10.73;;;8.83;;
1691;SDS011;843;52.054;8.552;2022-08-21T03:21:40;9.90;;;7.97;;
1691;SDS011;843;52.054;8.552;2022-08-21T03:24:06;11.33;;;7.80;;
1691;SDS011;843;52.054;8.552;2022-08-21T03:26:34;9.23;;;8.27;;
1691;SDS011;843;52.054;8.552;2022-08-21T03:29:01;12.17;;;7.10;;
1691;SDS011;843;52.054;8.552;2022-08-21T03:31:28;13.40;;;7.80;;
1691;SDS011;843;52.054;8.552;2022-08-21T03:33:56;7.53;;;6.73;;
1691;SDS011;843;52.054;8.552;2022-08-21T03:36:23;8.67;;;7.07;;
1691;SDS011;843;52.054;8.552;2022-08-21T03:38:51;12.77;;;7.60;;
1691;SDS011;843;52.054;8.552;2022-08-21T03:41:18;9.53;;;7.10;;
1691;SDS011;843;52.054;8.552;2022-08-21T03:43:45;10.80;;;6.83;;
1691;SDS011;843;52.054;8.552;2022-08-21T03:46:11;8.20;;;6.13;;
1691;SDS011;843;52.054;8.552;2022-08-21T03:48:39;10.70;;;7.53;;
1691;SDS011;843;52.054;8.552;2022-08-21T03:51:06;7.90;;;7.10;;
1691;SDS011;843;52.054;8.552;2022-08-21T03:53:33;7.13;;;6.13;;
1691;SDS011;843;52.054;8.552;2022-08-21T03:56:01;11.07;;;6.80;;
1691;SDS011;843;52.054;8.552;2022-08-21T03:58:28;6.57;;;5.97;;
1691;SDS011;843;52.054;8.552;2022-08-21T04:00:57;9.40;;;6.30;;
1691;SDS011;843;52.054;8.552;2022-08-21T04:03:25;8.20;;;5.73;;
1691;SDS011;843;52.054;8.552;2022-08-21T04:05:53;11.27;;;6.90;;
1691;SDS011;843;52.054;8.552;2022-08-21T04:08:20;9.33;;;6.97;;
1691;SDS011;843;52.054;8.552;2022-08-21T04:10:49;8.50;;;6.23;;
1691;SDS011;843;52.054;8.552;2022-08-21T04:13:19;10.47;;;6.60;;
1691;SDS011;843;52.054;8.552;2022-08-21T04:15:46;7.47;;;6.40;;
1691;SDS011;843;52.054;8.552;2022-08-21T04:18:13;9.27;;;6.27;;
1691;SDS011;843;52.054;8.552;2022-08-21T04:20:39;8.53;;;6.87;;
1691;SDS011;843;52.054;8.552;2022-08-21T04:23:07;11.47;;;6.90;;
1691;SDS011;843;52.054;8.552;2022-08-21T04:25:34;8.43;;;6.60;;
1691;SDS011;843;52.054;8.552;2022-08-21T04:28:00;10.43;;;6.90;;
1691;SDS011;843;52.054;8.552;2022-08-21T04:30:29;7.60;;;6.67;;
1691;SDS011;843;52.054;8.552;2022-08-21T04:32:56;7.77;;;6.93;;
1691;SDS011;843;52.054;8.552;2022-08-21T04:35:24;8.60;;;7.70;;
1691;SDS011;843;52.054;8.552;2022-08-21T04:37:52;7.10;;;6.40;;
1691;SDS011;843;52.054;8.552;2022-08-21T04:40:19;12.37;;;6.33;;
1691;SDS011;843;52.054;8.552;2022-08-21T04:42:47;8.77;;;7.00;;
1691;SDS011;843;52.054;8.552;2022-08-21T04:45:16;6.97;;;6.20;;
1691;SDS011;843;52.054;8.552;2022-08-21T04:47:47;8.23;;;6.80;;
1691;SDS011;843;52.054;8.552;2022-08-21T04:50:15;7.20;;;6.47;;
1691;SDS011;843;52.054;8.552;2022-08-21T04:52:42;7.83;;;7.07;;
1691;SDS011;843;52.054;8.552;2022-08-21T04:55:09;11.03;;;8.20;;
1691;SDS011;843;52.054;8.552;2022-08-21T04:57:36;7.77;;;6.97;;
1691;SDS011;843;52.054;8.552;2022-08-21T05:00:04;7.80;;;7.00;;
1691;SDS011;843;52.054;8.552;2022-08-21T05:02:32;8.80;;;7.23;;
1691;SDS011;843;52.054;8.552;2022-08-21T05:05:00;8.00;;;6.70;;
1691;SDS011;843;52.054;8.552;2022-08-21T05:07:28;16.60;;;8.10;;
1691;SDS011;843;52.054;8.552;2022-08-21T05:09:56;9.33;;;7.47;;
1691;SDS011;843;52.054;8.552;2022-08-21T05:12:23;9.70;;;7.10;;
1691;SDS011;843;52.054;8.552;2022-08-21T05:14:50;8.93;;;8.03;;
1691;SDS011;843;52.054;8.552;2022-08-21T05:17:16;7.60;;;6.90;;
1691;SDS011;843;52.054;8.552;2022-08-21T05:19:43;9.70;;;6.70;;
1691;SDS011;843;52.054;8.552;2022-08-21T05:22:18;7.17;;;5.97;;
1691;SDS011;843;52.054;8.552;2022-08-21T05:24:45;6.47;;;5.83;;
1691;SDS011;843;52.054;8.552;2022-08-21T05:27:12;7.10;;;5.20;;
1691;SDS011;843;52.054;8.552;2022-08-21T05:29:38;9.63;;;4.97;;
1691;SDS011;843;52.054;8.552;2022-08-21T05:32:07;9.80;;;5.03;;
1691;SDS011;843;52.054;8.552;2022-08-21T05:34:35;7.97;;;4.90;;
1691;SDS011;843;52.054;8.552;2022-08-21T05:37:02;6.93;;;5.40;;
1691;SDS011;843;52.054;8.552;2022-08-21T05:39:30;6.97;;;5.70;;
1691;SDS011;843;52.054;8.552;2022-08-21T05:41:57;6.57;;;4.70;;
1691;SDS011;843;52.054;8.552;2022-08-21T05:44:23;6.00;;;5.00;;
1691;SDS011;843;52.054;8.552;2022-08-21T05:46:50;6.97;;;6.30;;
1691;SDS011;843;52.054;8.552;2022-08-21T05:49:17;6.90;;;6.03;;
1691;SDS011;843;52.054;8.552;2022-08-21T05:51:43;13.10;;;7.73;;
1691;SDS011;843;52.054;8.552;2022-08-21T05:54:10;8.37;;;7.43;;
1691;SDS011;843;52.054;8.552;2022-08-21T05:56:39;8.73;;;7.20;;
1691;SDS011;843;52.054;8.552;2022-08-21T05:59:09;12.23;;;8.20;;
1691;SDS011;843;52.054;8.552;2022-08-21T06:01:36;7.60;;;6.90;;
1691;SDS011;843;52.054;8.552;2022-08-21T06:04:03;10.00;;;7.13;;
1691;SDS011;843;52.054;8.552;2022-08-21T06:06:30;9.90;;;7.83;;
1691;SDS011;843;52.054;8.552;2022-08-21T06:08:57;9.63;;;7.37;;
1691;SDS011;843;52.054;8.552;2022-08-21T06:11:24;12.33;;;8.80;;
1691;SDS011;843;52.054;8.552;2022-08-21T06:13:52;9.53;;;8.10;;
1691;SDS011;843;52.054;8.552;2022-08-21T06:16:18;8.97;;;7.40;;
1691;SDS011;843;52.054;8.552;2022-08-21T06:18:46;10.00;;;7.97;;
1691;SDS011;843;52.054;8.552;2022-08-21T06:21:13;9.90;;;7.20;;
1691;SDS011;843;52.054;8.552;2022-08-21T06:23:40;10.00;;;8.57;;
1691;SDS011;843;52.054;8.552;2022-08-21T06:26:07;9.63;;;8.17;;
1691;SDS011;843;52.054;8.552;2022-08-21T06:28:35;11.37;;;7.87;;
1691;SDS011;843;52.054;8.552;2022-08-21T06:31:10;8.90;;;7.70;;
1691;SDS011;843;52.054;8.552;2022-08-21T06:33:39;9.87;;;7.67;;
1691;SDS011;843;52.054;8.552;2022-08-21T06:36:06;10.03;;;7.37;;
1691;SDS011;843;52.054;8.552;2022-08-21T06:38:33;9.67;;;6.77;;
1691;SDS011;843;52.054;8.552;2022-08-21T06:40:59;11.23;;;7.60;;
1691;SDS011;843;52.054;8.552;2022-08-21T06:43:26;9.87;;;7.70;;
1691;SDS011;843;52.054;8.552;2022-08-21T06:45:53;13.93;;;7.13;;
1691;SDS011;843;52.054;8.552;2022-08-21T06:48:21;8.10;;;6.60;;
1691;SDS011;843;52.054;8.552;2022-08-21T06:50:48;8.77;;;7.10;;
1691;SDS011;843;52.054;8.552;2022-08-21T06:53:15;8.17;;;6.37;;
1691;SDS011;843;52.054;8.552;2022-08-21T06:55:43;12.47;;;7.30;;
1691;SDS011;843;52.054;8.552;2022-08-21T06:58:11;7.63;;;6.83;;
1691;SDS011;843;52.054;8.552;2022-08-21T07:00:38;10.37;;;7.37;;
1691;SDS011;843;52.054;8.552;2022-08-21T07:03:06;9.60;;;7.10;;
1691;SDS011;843;52.054;8.552;2022-08-21T07:05:34;8.10;;;6.60;;
1691;SDS011;843;52.054;8.552;2022-08-21T07:08:02;9.43;;;6.50;;
1691;SDS011;843;52.054;8.552;2022-08-21T07:10:29;7.97;;;5.97;;
1691;SDS011;843;52.054;8.552;2022-08-21T07:12:55;8.17;;;7.37;;
1691;SDS011;843;52.054;8.552;2022-08-21T07:15:22;7.70;;;6.87;;
1691;SDS011;843;52.054;8.552;2022-08-21T07:17:48;7.63;;;6.33;;
1691;SDS011;843;52.054;8.552;2022-08-21T07:20:15;10.33;;;6.13;;
1691;SDS011;843;52.054;8.552;2022-08-21T07:22:43;7.80;;;6.50;;
1691;SDS011;843;52.054;8.552;2022-08-21T07:25:10;11.80;;;7.00;;
1691;SDS011;843;52.054;8.552;2022-08-21T07:27:37;7.73;;;5.47;;
1691;SDS011;843;52.054;8.552;2022-08-21T07:30:04;9.43;;;6.30;;
1691;SDS011;843;52.054;8.552;2022-08-21T07:32:32;6.77;;;5.93;;
1691;SDS011;843;52.054;8.552;2022-08-21T07:34:59;10.63;;;7.40;;
1691;SDS011;843;52.054;8.552;2022-08-21T07:37:25;8.50;;;6.83;;
1691;SDS011;843;52.054;8.552;2022-08-21T07:39:53;7.10;;;6.07;;
1691;SDS011;843;52.054;8.552;2022-08-21T07:42:20;7.23;;;5.83;;
1691;SDS011;843;52.054;8.552;2022-08-21T07:44:47;7.50;;;6.40;;
1691;SDS011;843;52.054;8.552;2022-08-21T07:47:14;12.43;;;5.43;;
1691;SDS011;843;52.054;8.552;2022-08-21T07:49:40;6.70;;;5.70;;
1691;SDS011;843;52.054;8.552;2022-08-21T07:52:07;8.30;;;7.43;;
1691;SDS011;843;52.054;8.552;2022-08-21T07:54:34;10.70;;;6.63;;
1691;SDS011;843;52.054;8.552;2022-08-21T07:57:02;7.93;;;5.40;;
1691;SDS011;843;52.054;8.552;2022-08-21T07:59:29;10.10;;;6.07;;
1691;SDS011;843;52.054;8.552;2022-08-21T08:01:56;6.53;;;5.10;;
1691;SDS011;843;52.054;8.552;2022-08-21T08:04:23;8.23;;;4.60;;
1691;SDS011;843;52.054;8.552;2022-08-21T08:06:50;6.50;;;4.10;;
1691;SDS011;843;52.054;8.552;2022-08-21T08:09:17;9.43;;;5.10;;
1691;SDS011;843;52.054;8.552;2022-08-21T08:11:43;12.90;;;4.97;;
1691;SDS011;843;52.054;8.552;2022-08-21T08:14:11;7.40;;;3.63;;
1691;SDS011;843;52.054;8.552;2022-08-21T08:16:38;6.10;;;4.40;;
1691;SDS011;843;52.054;8.552;2022-08-21T08:19:05;7.13;;;3.87;;
1691;SDS011;843;52.054;8.552;2022-08-21T08:21:32;5.53;;;3.53;;
1691;SDS011;843;52.054;8.552;2022-08-21T08:23:59;8.40;;;4.30;;
1691;SDS011;843;52.054;8.552;2022-08-21T08:26:26;7.00;;;3.87;;
1691;SDS011;843;52.054;8.552;2022-08-21T08:28:52;5.07;;;3.00;;
1691;SDS011;843;52.054;8.552;2022-08-21T08:31:21;4.17;;;2.80;;
1691;SDS011;843;52.054;8.552;2022-08-21T08:33:48;6.20;;;3.10;;
1691;SDS011;843;52.054;8.552;2022-08-21T08:36:15;6.50;;;3.20;;
1691;SDS011;843;52.054;8.552;2022-08-21T08:38:44;5.67;;;2.67;;
1691;SDS011;843;52.054;8.552;2022-08-21T08:41:11;9.83;;;3.40;;
1691;SDS011;843;52.054;8.552;2022-08-21T08:43:40;6.83;;;3.20;;
1691;SDS011;843;52.054;8.552;2022-08-21T08:46:10;6.67;;;2.83;;
1691;SDS011;843;52.054;8.552;2022-08-21T08:48:41;6.37;;;2.60;;
1691;SDS011;843;52.054;8.552;2022-08-21T08:51:15;5.97;;;2.77;;
1691;SDS011;843;52.054;8.552;2022-08-21T08:53:46;6.20;;;2.50;;
1691;SDS011;843;52.054;8.552;2022-08-21T08:56:17;5.03;;;2.57;;
1691;SDS011;843;52.054;8.552;2022-08-21T08:58:45;6.87;;;2.27;;
1691;SDS011;843;52.054;8.552;2022-08-21T09:01:13;6.40;;;2.67;;
1691;SDS011;843;52.054;8.552;2022-08-21T09:03:44;5.73;;;2.30;;
1691;SDS011;843;52.054;8.552;2022-08-21T09:06:17;6.50;;;2.20;;
1691;SDS011;843;52.054;8.552;2022-08-21T09:08:50;5.00;;;2.47;;
1691;SDS011;843;52.054;8.552;2022-08-21T09:11:23;6.80;;;1.83;;
1691;SDS011;843;52.054;8.552;2022-08-21T09:13:55;4.30;;;2.20;;
1691;SDS011;843;52.054;8.552;2022-08-21T09:16:29;5.33;;;2.23;;
1691;SDS011;843;52.054;8.552;2022-08-21T09:19:07;8.50;;;2.77;;
1691;SDS011;843;52.054;8.552;2022-08-21T09:21:41;5.43;;;2.60;;
1691;SDS011;843;52.054;8.552;2022-08-21T09:24:22;6.23;;;2.50;;
1691;SDS011;843;52.054;8.552;2022-08-21T09:26:59;9.47;;;2.70;;
1691;SDS011;843;52.054;8.552;2022-08-21T09:29:30;7.47;;;3.10;;
1691;SDS011;843;52.054;8.552;2022-08-21T09:31:59;4.53;;;2.83;;
1691;SDS011;843;52.054;8.552;2022-08-21T09:34:29;7.00;;;2.73;;
1691;SDS011;843;52.054;8.552;2022-08-21T09:36:57;8.13;;;3.10;;
1691;SDS011;843;52.054;8.552;2022-08-21T09:39:25;3.93;;;2.73;;
1691;SDS011;843;52.054;8.552;2022-08-21T09:41:57;8.43;;;3.60;;
1691;SDS011;843;52.054;8.552;2022-08-21T09:44:25;8.23;;;3.13;;
1691;SDS011;843;52.054;8.552;2022-08-21T09:46:53;10.60;;;3.37;;
1691;SDS011;843;52.054;8.552;2022-08-21T09:49:27;4.50;;;2.23;;
1691;SDS011;843;52.054;8.552;2022-08-21T09:51:55;10.13;;;3.17;;
1691;SDS011;843;52.054;8.552;2022-08-21T09:54:24;5.37;;;2.77;;
1691;SDS011;843;52.054;8.552;2022-08-21T09:56:54;8.20;;;4.30;;
1691;SDS011;843;52.054;8.552;2022-08-21T09:59:41;6.03;;;3.27;;
1691;SDS011;843;52.054;8.552;2022-08-21T10:02:23;7.20;;;3.60;;
1691;SDS011;843;52.054;8.552;2022-08-21T10:04:54;6.03;;;3.63;;
1691;SDS011;843;52.054;8.552;2022-08-21T10:07:22;10.13;;;3.70;;
1691;SDS011;843;52.054;8.552;2022-08-21T10:10:01;6.00;;;4.10;;
1691;SDS011;843;52.054;8.552;2022-08-21T10:12:33;5.70;;;3.83;;
1691;SDS011;843;52.054;8.552;2022-08-21T10:15:09;8.00;;;4.17;;
1691;SDS011;843;52.054;8.552;2022-08-21T10:17:43;7.10;;;4.00;;
1691;SDS011;843;52.054;8.552;2022-08-21T10:20:17;7.80;;;4.70;;
1691;SDS011;843;52.054;8.552;2022-08-21T10:22:48;6.47;;;3.83;;
1691;SDS011;843;52.054;8.552;2022-08-21T10:25:23;8.10;;;4.80;;
1691;SDS011;843;52.054;8.552;2022-08-21T10:27:55;5.80;;;4.13;;
1691;SDS011;843;52.054;8.552;2022-08-21T10:30:29;6.30;;;4.37;;
1691;SDS011;843;52.054;8.552;2022-08-21T10:33:03;6.27;;;4.50;;
1691;SDS011;843;52.054;8.552;2022-08-21T10:35:42;6.30;;;3.43;;
1691;SDS011;843;52.054;8.552;2022-08-21T10:41:14;8.60;;;3.83;;
1691;SDS011;843;52.054;8.552;2022-08-21T10:43:49;7.20;;;3.23;;
1691;SDS011;843;52.054;8.552;2022-08-21T10:46:22;7.90;;;3.33;;
1691;SDS011;843;52.054;8.552;2022-08-21T10:49:03;6.20;;;2.83;;
1691;SDS011;843;52.054;8.552;2022-08-21T10:51:42;4.80;;;2.70;;
1691;SDS011;843;52.054;8.552;2022-08-21T10:54:15;11.90;;;2.70;;
1691;SDS011;843;52.054;8.552;2022-08-21T10:56:47;3.53;;;2.37;;
1691;SDS011;843;52.054;8.552;2022-08-21T10:59:22;7.60;;;2.50;;
1691;SDS011;843;52.054;8.552;2022-08-21T11:01:53;3.30;;;2.10;;
1691;SDS011;843;52.054;8.552;2022-08-21T11:04:24;6.60;;;2.40;;
1691;SDS011;843;52.054;8.552;2022-08-21T11:06:58;7.67;;;2.70;;
1691;SDS011;843;52.054;8.552;2022-08-21T11:09:28;5.33;;;2.97;;
1691;SDS011;843;52.054;8.552;2022-08-21T11:11:56;5.20;;;2.10;;
1691;SDS011;843;52.054;8.552;2022-08-21T11:14:30;5.93;;;2.30;;
1691;SDS011;843;52.054;8.552;2022-08-21T11:17:05;7.47;;;2.60;;
1691;SDS011;843;52.054;8.552;2022-08-21T11:19:35;4.30;;;2.20;;
1691;SDS011;843;52.054;8.552;2022-08-21T11:22:08;5.23;;;1.97;;
1691;SDS011;843;52.054;8.552;2022-08-21T11:24:39;5.40;;;2.40;;
1691;SDS011;843;52.054;8.552;2022-08-21T11:27:12;5.60;;;2.40;;
1691;SDS011;843;52.054;8.552;2022-08-21T11:29:44;4.50;;;1.80;;
1691;SDS011;843;52.054;8.552;2022-08-21T11:32:31;3.73;;;2.10;;
1691;SDS011;843;52.054;8.552;2022-08-21T11:35:10;5.77;;;2.57;;
1691;SDS011;843;52.054;8.552;2022-08-21T11:37:47;3.33;;;2.40;;
1691;SDS011;843;52.054;8.552;2022-08-21T11:40:31;6.50;;;2.43;;
1691;SDS011;843;52.054;8.552;2022-08-21T11:43:05;4.37;;;2.70;;
1691;SDS011;843;52.054;8.552;2022-08-21T11:45:37;5.13;;;2.30;;
1691;SDS011;843;52.054;8.552;2022-08-21T11:48:07;5.63;;;2.40;;
1691;SDS011;843;52.054;8.552;2022-08-21T11:50:55;5.70;;;3.00;;
1691;SDS011;843;52.054;8.552;2022-08-21T11:53:25;4.43;;;2.93;;
1691;SDS011;843;52.054;8.552;2022-08-21T11:55:55;6.03;;;3.10;;
1691;SDS011;843;52.054;8.552;2022-08-21T11:58:27;4.70;;;2.20;;
1691;SDS011;843;52.054;8.552;2022-08-21T12:00:56;5.40;;;3.30;;
1691;SDS011;843;52.054;8.552;2022-08-21T12:03:26;4.87;;;2.50;;
1691;SDS011;843;52.054;8.552;2022-08-21T12:05:55;8.13;;;2.80;;
1691;SDS011;843;52.054;8.552;2022-08-21T12:08:29;5.53;;;2.80;;
1691;SDS011;843;52.054;8.552;2022-08-21T12:11:02;5.20;;;2.80;;
1691;SDS011;843;52.054;8.552;2022-08-21T12:13:32;5.37;;;3.20;;
1691;SDS011;843;52.054;8.552;2022-08-21T12:16:07;5.70;;;3.10;;
1691;SDS011;843;52.054;8.552;2022-08-21T12:18:38;5.30;;;3.20;;
1691;SDS011;843;52.054;8.552;2022-08-21T12:21:16;3.80;;;2.70;;
1691;SDS011;843;52.054;8.552;2022-08-21T12:23:49;6.17;;;2.90;;
1691;SDS011;843;52.054;8.552;2022-08-21T12:26:27;4.37;;;3.33;;
1691;SDS011;843;52.054;8.552;2022-08-21T12:29:05;5.33;;;3.20;;
1691;SDS011;843;52.054;8.552;2022-08-21T12:31:46;4.87;;;2.50;;
1691;SDS011;843;52.054;8.552;2022-08-21T12:34:14;5.10;;;3.23;;
1691;SDS011;843;52.054;8.552;2022-08-21T12:36:42;5.30;;;3.03;;
1691;SDS011;843;52.054;8.552;2022-08-21T12:39:13;6.00;;;3.30;;
1691;SDS011;843;52.054;8.552;2022-08-21T12:41:44;5.73;;;3.20;;
1691;SDS011;843;52.054;8.552;2022-08-21T12:44:15;3.90;;;2.70;;
1691;SDS011;843;52.054;8.552;2022-08-21T12:46:44;6.17;;;3.83;;
1691;SDS011;843;52.054;8.552;2022-08-21T12:49:13;6.23;;;3.20;;
1691;SDS011;843;52.054;8.552;2022-08-21T12:51:50;10.30;;;3.50;;
1691;SDS011;843;52.054;8.552;2022-08-21T12:54:23;5.80;;;3.47;;
1691;SDS011;843;52.054;8.552;2022-08-21T12:56:55;4.73;;;3.10;;
1691;SDS011;843;52.054;8.552;2022-08-21T12:59:23;6.80;;;2.60;;
1691;SDS011;843;52.054;8.552;2022-08-21T13:01:51;3.30;;;2.37;;
1691;SDS011;843;52.054;8.552;2022-08-21T13:04:21;3.60;;;2.23;;
1691;SDS011;843;52.054;8.552;2022-08-21T13:06:50;4.33;;;1.93;;
1691;SDS011;843;52.054;8.552;2022-08-21T13:09:20;3.50;;;2.10;;
1691;SDS011;843;52.054;8.552;2022-08-21T13:11:51;4.13;;;2.07;;
1691;SDS011;843;52.054;8.552;2022-08-21T13:14:21;3.83;;;2.00;;
1691;SDS011;843;52.054;8.552;2022-08-21T13:16:57;6.63;;;2.13;;
1691;SDS011;843;52.054;8.552;2022-08-21T13:19:25;8.10;;;2.43;;
1691;SDS011;843;52.054;8.552;2022-08-21T13:21:54;4.27;;;2.30;;
1691;SDS011;843;52.054;8.552;2022-08-21T13:24:22;3.83;;;2.00;;
1691;SDS011;843;52.054;8.552;2022-08-21T13:26:54;4.40;;;2.00;;
1691;SDS011;843;52.054;8.552;2022-08-21T13:29:23;5.23;;;2.20;;
1691;SDS011;843;52.054;8.552;2022-08-21T13:31:54;3.37;;;1.97;;
1691;SDS011;843;52.054;8.552;2022-08-21T13:34:23;5.43;;;2.10;;
1691;SDS011;843;52.054;8.552;2022-08-21T13:36:54;6.10;;;2.60;;
1691;SDS011;843;52.054;8.552;2022-08-21T13:39:22;5.77;;;2.00;;
1691;SDS011;843;52.054;8.552;2022-08-21T13:41:52;5.40;;;1.90;;
1691;SDS011;843;52.054;8.552;2022-08-21T13:44:23;5.50;;;2.40;;
1691;SDS011;843;52.054;8.552;2022-08-21T13:46:58;4.50;;;2.40;;
1691;SDS011;843;52.054;8.552;2022-08-21T13:49:26;3.53;;;2.07;;
1691;SDS011;843;52.054;8.552;2022-08-21T13:51:55;4.13;;;2.27;;
1691;SDS011;843;52.054;8.552;2022-08-21T13:54:24;6.73;;;2.57;;
1691;SDS011;843;52.054;8.552;2022-08-21T13:56:54;3.73;;;1.90;;
1691;SDS011;843;52.054;8.552;2022-08-21T13:59:24;3.60;;;2.17;;
1691;SDS011;843;52.054;8.552;2022-08-21T14:01:54;3.70;;;1.50;;
1691;SDS011;843;52.054;8.552;2022-08-21T14:04:25;7.17;;;2.73;;
1691;SDS011;843;52.054;8.552;2022-08-21T14:06:55;5.53;;;2.23;;
1691;SDS011;843;52.054;8.552;2022-08-21T14:09:23;5.10;;;2.50;;
1691;SDS011;843;52.054;8.552;2022-08-21T14:11:55;4.30;;;2.17;;
1691;SDS011;843;52.054;8.552;2022-08-21T14:14:24;3.27;;;1.87;;
1691;SDS011;843;52.054;8.552;2022-08-21T14:16:56;3.33;;;1.80;;
1691;SDS011;843;52.054;8.552;2022-08-21T14:19:24;4.67;;;2.47;;
1691;SDS011;843;52.054;8.552;2022-08-21T14:21:52;3.30;;;1.70;;
1691;SDS011;843;52.054;8.552;2022-08-21T14:24:28;3.50;;;1.90;;
1691;SDS011;843;52.054;8.552;2022-08-21T14:26:56;2.90;;;1.57;;
1691;SDS011;843;52.054;8.552;2022-08-21T14:29:32;2.93;;;1.93;;
1691;SDS011;843;52.054;8.552;2022-08-21T14:32:00;5.80;;;1.97;;
1691;SDS011;843;52.054;8.552;2022-08-21T14:34:35;3.60;;;2.03;;
1691;SDS011;843;52.054;8.552;2022-08-21T14:37:02;3.70;;;1.10;;
1691;SDS011;843;52.054;8.552;2022-08-21T14:39:30;3.60;;;1.40;;
1691;SDS011;843;52.054;8.552;2022-08-21T14:41:57;2.63;;;1.20;;
1691;SDS011;843;52.054;8.552;2022-08-21T14:44:24;2.83;;;1.37;;
1691;SDS011;843;52.054;8.552;2022-08-21T14:46:51;2.97;;;1.17;;
1691;SDS011;843;52.054;8.552;2022-08-21T14:49:18;2.30;;;1.00;;
1691;SDS011;843;52.054;8.552;2022-08-21T14:51:44;2.10;;;1.43;;
1691;SDS011;843;52.054;8.552;2022-08-21T14:54:11;1.97;;;0.80;;
1691;SDS011;843;52.054;8.552;2022-08-21T14:56:39;2.00;;;0.90;;
1691;SDS011;843;52.054;8.552;2022-08-21T14:59:06;2.77;;;1.57;;
1691;SDS011;843;52.054;8.552;2022-08-21T15:01:34;4.43;;;1.40;;
1691;SDS011;843;52.054;8.552;2022-08-21T15:04:02;2.53;;;1.20;;
1691;SDS011;843;52.054;8.552;2022-08-21T15:06:29;4.80;;;1.20;;
1691;SDS011;843;52.054;8.552;2022-08-21T15:08:56;4.03;;;1.30;;
1691;SDS011;843;52.054;8.552;2022-08-21T15:11:23;3.10;;;1.50;;
1691;SDS011;843;52.054;8.552;2022-08-21T15:13:53;3.03;;;1.37;;
1691;SDS011;843;52.054;8.552;2022-08-21T15:16:22;3.23;;;1.33;;
1691;SDS011;843;52.054;8.552;2022-08-21T15:18:49;3.37;;;1.50;;
1691;SDS011;843;52.054;8.552;2022-08-21T15:21:16;1.80;;;1.13;;
1691;SDS011;843;52.054;8.552;2022-08-21T15:23:43;5.60;;;1.30;;
1691;SDS011;843;52.054;8.552;2022-08-21T15:26:09;2.10;;;1.27;;
1691;SDS011;843;52.054;8.552;2022-08-21T15:28:36;3.10;;;1.20;;
1691;SDS011;843;52.054;8.552;2022-08-21T15:31:04;3.23;;;1.07;;
1691;SDS011;843;52.054;8.552;2022-08-21T15:33:31;3.93;;;1.10;;
1691;SDS011;843;52.054;8.552;2022-08-21T15:35:58;2.07;;;1.03;;
1691;SDS011;843;52.054;8.552;2022-08-21T15:38:25;3.23;;;1.00;;
1691;SDS011;843;52.054;8.552;2022-08-21T15:40:51;6.07;;;1.10;;
1691;SDS011;843;52.054;8.552;2022-08-21T15:43:21;1.97;;;0.83;;